Time;durP1;ratioP1;P1;durP2;ratioP2;P2;SDS_P1;SDS_P2;PMS_P1;PMS_P2;Temp;Humidity;BMP_temperature;BMP_pressure;BME280_temperature;BME280_humidity;BME280_pressure;Samples;Min_cycle;Max_cycle;Signal;HPM_P1;HPM_P2
2024/01/07 00:02:15;;;;;;;0.80;0.60;;;22.70;44.60;;;;;;5115061;28;20218;-36
2024/01/07 00:04:42;;;;;;;1.30;0.82;;;22.70;44.70;;;;;;5109137;28;20032;-33
2024/01/07 00:07:08;;;;;;;2.40;0.75;;;22.70;44.70;;;;;;5119785;28;20027;-37
2024/01/07 00:09:34;;;;;;;1.30;0.82;;;22.70;44.90;;;;;;5095171;28;20100;-31
2024/01/07 00:12:00;;;;;;;1.17;0.75;;;22.60;44.90;;;;;;5115919;28;20024;-37
2024/01/07 00:14:26;;;;;;;2.15;0.80;;;22.60;44.90;;;;;;5119308;28;20028;-34
2024/01/07 00:16:52;;;;;;;0.73;0.70;;;22.70;44.80;;;;;;5108523;28;20032;-34
2024/01/07 00:19:18;;;;;;;0.68;0.68;;;22.70;44.70;;;;;;5114057;28;20023;-36
2024/01/07 00:21:44;;;;;;;0.68;0.55;;;22.70;44.70;;;;;;5118687;28;20100;-35
2024/01/07 00:24:10;;;;;;;1.15;0.82;;;22.70;44.80;;;;;;5110057;28;20023;-36
2024/01/07 00:26:37;;;;;;;1.45;0.88;;;22.70;44.80;;;;;;5108846;28;20119;-34
2024/01/07 00:29:03;;;;;;;0.70;0.60;;;22.60;45.00;;;;;;5099335;28;20044;-36
2024/01/07 00:31:29;;;;;;;0.63;0.60;;;22.60;45.00;;;;;;5115719;28;20035;-34
2024/01/07 00:33:55;;;;;;;2.45;0.68;;;22.70;44.90;;;;;;5110124;28;20052;-36
2024/01/07 00:36:22;;;;;;;1.35;0.65;;;22.70;44.80;;;;;;5114364;27;20028;-33
2024/01/07 00:38:48;;;;;;;2.00;0.90;;;22.70;44.80;;;;;;5116798;28;20040;-33
2024/01/07 00:41:14;;;;;;;0.70;0.70;;;22.70;45.00;;;;;;5117103;28;20040;-35
2024/01/07 00:43:40;;;;;;;1.40;0.80;;;22.70;45.10;;;;;;5121017;28;20019;-34
2024/01/07 00:46:07;;;;;;;1.80;0.67;;;22.60;45.10;;;;;;5116180;28;20038;-35
2024/01/07 00:48:33;;;;;;;0.90;0.67;;;22.60;45.00;;;;;;5089836;28;20279;-36
2024/01/07 00:50:59;;;;;;;1.58;0.80;;;22.60;45.00;;;;;;5118279;28;20043;-37
2024/01/07 00:53:25;;;;;;;1.40;0.80;;;22.70;44.90;;;;;;5116522;28;20034;-34
2024/01/07 00:55:51;;;;;;;2.40;0.77;;;22.70;45.00;;;;;;5111957;28;20039;-36
2024/01/07 00:58:17;;;;;;;1.23;0.80;;;22.70;45.10;;;;;;5112830;28;20027;-37
2024/01/07 01:00:44;;;;;;;0.60;0.60;;;22.60;45.10;;;;;;5108748;28;20024;-36
2024/01/07 01:03:10;;;;;;;2.15;0.70;;;22.60;45.10;;;;;;5109871;28;20091;-35
2024/01/07 01:05:36;;;;;;;0.93;0.70;;;22.60;45.00;;;;;;5111079;28;20077;-34
2024/01/07 01:08:02;;;;;;;0.75;0.70;;;22.60;45.00;;;;;;5113777;28;20031;-37
2024/01/07 01:10:28;;;;;;;1.05;0.60;;;22.70;44.90;;;;;;5117727;28;20218;-33
2024/01/07 01:12:54;;;;;;;2.05;0.75;;;22.70;45.00;;;;;;5113409;28;20039;-32
2024/01/07 01:15:21;;;;;;;1.92;0.88;;;22.70;45.00;;;;;;5110419;28;20031;-37
2024/01/07 01:17:47;;;;;;;2.38;0.90;;;22.60;45.10;;;;;;5118641;28;20030;-37
2024/01/07 01:20:13;;;;;;;1.90;0.77;;;22.60;45.10;;;;;;5105800;28;20024;-36
2024/01/07 01:22:39;;;;;;;2.47;0.73;;;22.60;45.10;;;;;;5110879;28;20053;-35
2024/01/07 01:25:06;;;;;;;1.77;0.80;;;22.60;45.00;;;;;;5112439;28;20064;-31
2024/01/07 01:27:32;;;;;;;1.95;0.77;;;22.60;45.00;;;;;;5117079;28;20024;-31
2024/01/07 01:29:58;;;;;;;2.58;0.65;;;22.70;45.00;;;;;;5096152;28;20044;-33
2024/01/07 01:32:24;;;;;;;1.30;0.80;;;22.60;45.10;;;;;;5097456;28;20145;-32
2024/01/07 01:34:50;;;;;;;0.90;0.70;;;22.60;45.10;;;;;;5095869;28;20031;-31
2024/01/07 01:37:17;;;;;;;1.27;0.85;;;22.60;45.10;;;;;;5115124;28;20088;-35
2024/01/07 01:39:43;;;;;;;1.08;0.70;;;22.50;45.10;;;;;;5116316;28;20058;-36
2024/01/07 01:42:09;;;;;;;3.10;1.00;;;22.60;45.20;;;;;;5116847;27;20061;-37
2024/01/07 01:44:35;;;;;;;0.90;0.80;;;22.60;45.00;;;;;;5116334;28;20039;-32
2024/01/07 01:47:02;;;;;;;1.27;0.90;;;22.60;45.00;;;;;;5116289;28;20091;-32
2024/01/07 01:49:28;;;;;;;1.15;0.75;;;22.60;45.10;;;;;;5097139;28;20035;-35
2024/01/07 01:51:55;;;;;;;1.10;0.80;;;22.60;45.10;;;;;;5097066;28;20047;-29
2024/01/07 01:54:21;;;;;;;1.40;0.80;;;22.60;45.20;;;;;;5113020;27;20036;-35
2024/01/07 01:56:47;;;;;;;1.80;0.73;;;22.50;45.00;;;;;;5106806;28;20062;-36
2024/01/07 01:59:14;;;;;;;1.27;0.95;;;22.50;45.10;;;;;;5108188;28;20038;-32
2024/01/07 02:01:40;;;;;;;1.40;0.90;;;22.60;45.60;;;;;;5097006;28;20484;-30
2024/01/07 02:04:07;;;;;;;1.00;0.70;;;22.60;45.10;;;;;;5096041;28;20024;-36
2024/01/07 02:06:33;;;;;;;1.33;0.60;;;22.60;45.20;;;;;;5090052;28;20024;-34
2024/01/07 02:08:59;;;;;;;1.13;0.70;;;22.60;45.20;;;;;;5111581;28;20628;-37
2024/01/07 02:11:25;;;;;;;0.90;0.60;;;22.50;45.20;;;;;;5114051;28;20039;-35
2024/01/07 02:13:51;;;;;;;0.60;0.55;;;22.50;45.10;;;;;;5120830;28;20029;-33
2024/01/07 02:16:18;;;;;;;1.10;0.68;;;22.50;45.20;;;;;;5111419;28;20168;-34
2024/01/07 02:18:45;;;;;;;1.38;0.60;;;22.60;45.10;;;;;;5110791;28;20027;-35
2024/01/07 02:21:12;;;;;;;0.95;0.80;;;22.60;45.00;;;;;;5115861;28;20028;-37
2024/01/07 02:23:39;;;;;;;1.90;0.60;;;22.60;45.10;;;;;;5107860;28;20381;-37
2024/01/07 02:26:05;;;;;;;1.48;0.70;;;22.50;45.70;;;;;;5115416;28;20028;-34
2024/01/07 02:28:32;;;;;;;0.88;0.52;;;22.50;45.10;;;;;;5118352;28;20054;-37
2024/01/07 02:30:58;;;;;;;1.52;0.60;;;22.50;45.10;;;;;;5113882;28;20117;-35
2024/01/07 02:33:25;;;;;;;0.95;0.70;;;22.50;45.10;;;;;;5110189;28;20500;-37
2024/01/07 02:35:51;;;;;;;1.08;0.65;;;22.60;45.10;;;;;;5116574;28;20115;-36
2024/01/07 02:38:17;;;;;;;2.57;0.60;;;22.50;45.00;;;;;;5113765;28;20056;-33
2024/01/07 02:40:43;;;;;;;1.55;0.65;;;22.50;45.20;;;;;;5108214;28;20091;-32
2024/01/07 02:43:10;;;;;;;0.60;0.60;;;22.50;45.30;;;;;;5111288;28;20039;-37
2024/01/07 02:45:36;;;;;;;2.38;0.70;;;22.50;45.30;;;;;;5118404;27;20038;-35
2024/01/07 02:48:02;;;;;;;0.43;0.43;;;22.50;45.30;;;;;;5113663;27;20020;-36
2024/01/07 02:50:28;;;;;;;0.83;0.60;;;22.50;45.10;;;;;;5117174;27;20048;-33
2024/01/07 02:52:55;;;;;;;1.52;0.50;;;22.50;45.00;;;;;;5126265;27;20028;-31
2024/01/07 02:55:21;;;;;;;0.65;0.50;;;22.50;45.10;;;;;;5101131;28;20080;-36
2024/01/07 02:57:47;;;;;;;0.55;0.50;;;22.50;45.10;;;;;;5113440;28;20038;-33
2024/01/07 03:00:14;;;;;;;0.60;0.60;;;22.50;45.10;;;;;;5117990;28;20024;-35
2024/01/07 03:02:40;;;;;;;0.77;0.60;;;22.40;45.10;;;;;;5107658;28;20055;-33
2024/01/07 03:05:06;;;;;;;0.55;0.55;;;22.50;45.10;;;;;;5108414;28;20077;-37
2024/01/07 03:07:33;;;;;;;0.50;0.40;;;22.50;44.90;;;;;;5120869;28;20020;-33
2024/01/07 03:09:59;;;;;;;1.05;0.52;;;22.50;44.90;;;;;;5105802;28;20194;-31
2024/01/07 03:12:25;;;;;;;1.77;0.38;;;22.50;44.90;;;;;;5114237;28;20492;-35
2024/01/07 03:14:51;;;;;;;0.50;0.50;;;22.50;45.00;;;;;;5096836;28;20024;-32
2024/01/07 03:17:18;;;;;;;0.50;0.50;;;22.50;45.00;;;;;;5120822;28;20038;-33
2024/01/07 03:19:44;;;;;;;1.23;0.50;;;22.40;45.00;;;;;;5118527;28;20023;-33
2024/01/07 03:22:10;;;;;;;0.82;0.57;;;22.40;44.90;;;;;;5115549;28;20035;-31
2024/01/07 03:24:36;;;;;;;1.13;0.60;;;22.50;44.80;;;;;;5116068;28;20102;-35
2024/01/07 03:27:02;;;;;;;1.00;0.40;;;22.50;44.80;;;;;;5119125;28;20024;-37
2024/01/07 03:29:28;;;;;;;0.55;0.50;;;22.50;44.80;;;;;;5115416;28;20031;-36
2024/01/07 03:31:55;;;;;;;0.80;0.50;;;22.50;44.90;;;;;;5118470;28;20702;-35
2024/01/07 03:34:21;;;;;;;1.33;0.52;;;22.40;44.90;;;;;;5117765;28;20021;-35
2024/01/07 03:36:47;;;;;;;0.52;0.40;;;22.40;44.90;;;;;;5105955;28;20484;-37
2024/01/07 03:39:13;;;;;;;0.65;0.50;;;22.50;44.80;;;;;;5110232;28;20051;-35
2024/01/07 03:41:39;;;;;;;0.65;0.50;;;22.50;44.80;;;;;;5111016;28;20123;-34
2024/01/07 03:44:05;;;;;;;1.75;0.52;;;22.50;44.80;;;;;;5132758;28;20024;-34
2024/01/07 03:46:31;;;;;;;0.47;0.40;;;22.50;45.50;;;;;;5114006;28;20031;-31
2024/01/07 03:48:58;;;;;;;0.30;0.30;;;22.40;44.90;;;;;;5111413;28;20060;-35
2024/01/07 03:51:24;;;;;;;0.60;0.43;;;22.40;44.80;;;;;;5112459;28;20077;-31
2024/01/07 03:53:50;;;;;;;0.40;0.40;;;22.40;44.80;;;;;;5113265;27;20054;-37
2024/01/07 03:56:16;;;;;;;0.50;0.40;;;22.50;44.80;;;;;;5111862;28;20499;-35
2024/01/07 03:58:42;;;;;;;0.50;0.50;;;22.50;44.70;;;;;;5114713;28;20046;-36
2024/01/07 04:01:08;;;;;;;0.95;0.40;;;22.50;44.80;;;;;;5116658;27;20099;-35
2024/01/07 04:03:35;;;;;;;0.70;0.40;;;22.50;44.90;;;;;;5083714;28;20032;-35
2024/01/07 04:06:01;;;;;;;0.63;0.60;;;22.40;44.90;;;;;;5115151;27;20035;-36
2024/01/07 04:08:28;;;;;;;0.30;0.30;;;22.40;45.40;;;;;;5116376;27;20035;-35
2024/01/07 04:10:54;;;;;;;0.55;0.45;;;22.40;44.80;;;;;;5115839;28;20063;-33
2024/01/07 04:13:20;;;;;;;0.30;0.30;;;22.50;44.80;;;;;;5118672;28;20032;-34
2024/01/07 04:15:46;;;;;;;0.40;0.40;;;22.50;44.80;;;;;;5113985;27;20040;-35
2024/01/07 04:18:13;;;;;;;0.73;0.50;;;22.50;44.90;;;;;;5115008;27;20084;-37
2024/01/07 04:20:39;;;;;;;0.52;0.40;;;22.40;44.90;;;;;;5117528;27;20030;-34
2024/01/07 04:23:05;;;;;;;0.40;0.40;;;22.40;44.90;;;;;;5096652;28;21015;-32
2024/01/07 04:25:31;;;;;;;0.60;0.50;;;22.40;44.80;;;;;;5121910;27;20024;-33
2024/01/07 04:27:58;;;;;;;2.03;0.40;;;22.50;44.80;;;;;;5117512;28;20028;-36
2024/01/07 04:30:24;;;;;;;0.57;0.50;;;22.50;44.70;;;;;;5111543;28;20515;-37
2024/01/07 04:33:10;;;;;;;0.77;0.43;;;22.50;44.80;;;;;;5125926;27;20127;-34
2024/01/07 04:35:36;;;;;;;0.55;0.50;;;22.40;44.80;;;;;;5063363;28;20033;-34
2024/01/07 04:38:02;;;;;;;0.60;0.60;;;22.40;44.80;;;;;;5062051;28;20872;-34
2024/01/07 04:40:28;;;;;;;0.43;0.38;;;22.40;44.80;;;;;;5066641;28;20037;-34
2024/01/07 04:42:55;;;;;;;0.40;0.40;;;22.50;44.80;;;;;;5061371;28;20082;-34
2024/01/07 04:45:21;;;;;;;0.50;0.50;;;22.50;44.70;;;;;;5062024;28;20044;-34
2024/01/07 04:47:47;;;;;;;0.40;0.40;;;22.50;44.80;;;;;;5060947;28;20037;-33
2024/01/07 04:50:14;;;;;;;0.40;0.40;;;22.50;44.90;;;;;;5062158;28;20041;-36
2024/01/07 04:52:41;;;;;;;0.50;0.30;;;22.40;44.80;;;;;;5062069;28;20033;-36
2024/01/07 04:55:08;;;;;;;1.17;0.40;;;22.40;44.80;;;;;;5062365;28;20029;-36
2024/01/07 04:57:34;;;;;;;0.45;0.40;;;22.40;44.80;;;;;;5061092;28;20158;-36
2024/01/07 05:00:02;;;;;;;0.50;0.47;;;22.50;44.80;;;;;;5062721;28;20598;-32
2024/01/07 05:02:28;;;;;;;0.50;0.40;;;22.50;44.60;;;;;;5061676;28;20036;-35
2024/01/07 05:04:55;;;;;;;0.40;0.40;;;22.50;44.70;;;;;;5045410;28;20029;-35
2024/01/07 05:07:21;;;;;;;0.67;0.50;;;22.50;44.80;;;;;;5061500;28;20040;-34
2024/01/07 05:09:47;;;;;;;0.52;0.40;;;22.40;44.80;;;;;;5060212;28;20944;-35
2024/01/07 05:12:13;;;;;;;0.38;0.35;;;22.40;44.80;;;;;;5075362;28;20154;-35
2024/01/07 05:14:40;;;;;;;0.60;0.60;;;22.40;44.70;;;;;;5118270;27;20020;-32
2024/01/07 05:17:06;;;;;;;0.60;0.50;;;22.50;44.70;;;;;;5118075;27;20035;-32
2024/01/07 05:19:33;;;;;;;0.65;0.55;;;22.50;44.60;;;;;;5096580;28;20034;-35
2024/01/07 05:21:59;;;;;;;0.55;0.38;;;22.50;44.70;;;;;;5110559;27;20099;-37
2024/01/07 05:24:25;;;;;;;0.45;0.40;;;22.50;44.80;;;;;;5089078;28;20061;-35
2024/01/07 05:26:51;;;;;;;0.40;0.40;;;22.40;44.80;;;;;;5116642;27;20031;-35
2024/01/07 05:29:17;;;;;;;1.85;0.43;;;22.40;44.70;;;;;;5116958;28;20046;-37
2024/01/07 05:31:43;;;;;;;0.60;0.43;;;22.40;44.60;;;;;;5114195;27;20053;-37
2024/01/07 05:34:10;;;;;;;0.32;0.32;;;22.50;44.60;;;;;;5115012;28;20024;-37
2024/01/07 05:36:36;;;;;;;1.20;0.57;;;22.50;44.60;;;;;;5116665;28;20069;-36
2024/01/07 05:39:03;;;;;;;1.88;0.40;;;22.50;44.70;;;;;;5116622;28;20124;-34
2024/01/07 05:41:29;;;;;;;0.30;0.30;;;22.40;44.70;;;;;;5116192;27;20031;-37
2024/01/07 05:43:55;;;;;;;0.40;0.40;;;22.40;44.70;;;;;;5112952;27;20035;-34
2024/01/07 05:46:21;;;;;;;0.30;0.30;;;22.40;44.60;;;;;;5115845;27;20024;-35
2024/01/07 05:48:48;;;;;;;1.05;0.50;;;22.50;44.60;;;;;;5114052;28;20035;-33
2024/01/07 05:51:15;;;;;;;0.43;0.40;;;22.50;44.60;;;;;;5116696;28;20240;-32
2024/01/07 05:53:41;;;;;;;1.10;0.68;;;22.50;44.60;;;;;;5115856;28;20027;-36
2024/01/07 05:56:08;;;;;;;7.70;0.60;;;22.40;44.50;;;;;;5115086;28;20031;-36
2024/01/07 05:58:34;;;;;;;2.70;1.17;;;22.40;44.70;;;;;;5115489;28;20027;-35
2024/01/07 06:01:00;;;;;;;0.70;0.50;;;22.40;44.70;;;;;;5116674;28;20091;-36
2024/01/07 06:03:26;;;;;;;2.42;0.50;;;22.40;44.60;;;;;;5113033;27;20078;-35
2024/01/07 06:05:53;;;;;;;9.57;0.80;;;22.40;44.40;;;;;;5111906;28;20045;-35
2024/01/07 06:08:19;;;;;;;7.55;0.50;;;22.40;44.50;;;;;;5103858;28;20437;-37
2024/01/07 06:10:45;;;;;;;4.68;0.40;;;22.40;44.60;;;;;;5115049;28;20043;-33
2024/01/07 06:13:11;;;;;;;2.67;0.50;;;22.40;44.70;;;;;;5119983;27;20032;-37
2024/01/07 06:15:37;;;;;;;2.45;0.57;;;22.40;44.80;;;;;;5114770;27;20024;-31
2024/01/07 06:18:04;;;;;;;0.57;0.40;;;22.40;44.90;;;;;;5114916;28;20020;-35
2024/01/07 06:20:30;;;;;;;0.50;0.40;;;22.40;44.60;;;;;;5090724;28;20032;-37
2024/01/07 06:22:56;;;;;;;0.75;0.40;;;22.40;44.60;;;;;;5111441;27;20039;-34
2024/01/07 06:25:22;;;;;;;0.55;0.47;;;22.40;44.60;;;;;;5120066;28;20024;-36
2024/01/07 06:27:49;;;;;;;0.47;0.30;;;22.40;44.60;;;;;;5119951;28;20027;-36
2024/01/07 06:30:16;;;;;;;1.15;0.45;;;22.40;44.80;;;;;;5112759;27;20066;-33
2024/01/07 06:32:43;;;;;;;4.40;0.50;;;22.40;44.60;;;;;;5113750;27;20031;-35
2024/01/07 06:35:09;;;;;;;0.90;0.40;;;22.40;44.70;;;;;;5101073;28;20038;-32
2024/01/07 06:37:35;;;;;;;0.47;0.47;;;22.40;44.50;;;;;;5119375;28;20066;-36
2024/01/07 06:40:02;;;;;;;0.63;0.52;;;22.40;44.50;;;;;;5098043;28;21104;-32
2024/01/07 06:42:28;;;;;;;2.57;0.47;;;22.40;44.50;;;;;;5117870;27;20030;-33
2024/01/07 06:44:54;;;;;;;0.77;0.47;;;22.40;44.60;;;;;;5120102;27;20043;-35
2024/01/07 06:47:20;;;;;;;2.00;0.30;;;22.30;44.60;;;;;;5113407;28;20024;-32
2024/01/07 06:49:46;;;;;;;0.32;0.32;;;22.30;44.60;;;;;;5110004;27;20066;-32
2024/01/07 06:52:13;;;;;;;0.38;0.38;;;22.40;44.40;;;;;;5117899;28;20019;-34
2024/01/07 06:54:39;;;;;;;0.45;0.38;;;22.40;44.40;;;;;;5108512;28;20031;-33
2024/01/07 06:57:05;;;;;;;0.50;0.40;;;22.40;44.40;;;;;;5106953;28;20028;-36
2024/01/07 06:59:31;;;;;;;1.75;0.63;;;22.40;44.40;;;;;;5097475;28;20020;-33
2024/01/07 07:01:57;;;;;;;0.32;0.30;;;22.30;44.50;;;;;;5109430;28;20027;-36
2024/01/07 07:04:23;;;;;;;0.55;0.30;;;22.30;44.50;;;;;;5090996;28;20033;-37
2024/01/07 07:06:49;;;;;;;1.55;0.40;;;22.40;44.40;;;;;;5117800;28;20634;-35
2024/01/07 07:09:16;;;;;;;2.15;0.60;;;22.40;44.30;;;;;;5116401;28;20048;-35
2024/01/07 07:11:42;;;;;;;1.88;0.50;;;22.40;44.30;;;;;;5120472;28;20027;-34
2024/01/07 07:14:08;;;;;;;1.80;0.40;;;22.40;44.40;;;;;;5116710;27;20024;-36
2024/01/07 07:16:35;;;;;;;0.47;0.30;;;22.30;44.40;;;;;;5118230;28;20031;-35
2024/01/07 07:19:01;;;;;;;0.67;0.40;;;22.30;44.40;;;;;;5116162;28;20067;-36
2024/01/07 07:21:27;;;;;;;0.30;0.28;;;22.30;44.40;;;;;;5111013;28;20276;-37
2024/01/07 07:23:53;;;;;;;1.45;0.40;;;22.40;44.20;;;;;;5116683;28;20032;-36
2024/01/07 07:26:19;;;;;;;0.60;0.40;;;22.40;44.20;;;;;;5108825;28;20144;-38
2024/01/07 07:28:46;;;;;;;0.40;0.40;;;22.40;44.20;;;;;;5119774;28;20033;-38
2024/01/07 07:31:12;;;;;;;0.40;0.30;;;22.30;44.20;;;;;;5105462;28;20405;-33
2024/01/07 07:33:39;;;;;;;0.40;0.30;;;22.30;44.30;;;;;;5111523;28;20027;-34
2024/01/07 07:36:06;;;;;;;0.50;0.40;;;22.30;44.30;;;;;;5109420;28;20032;-35
2024/01/07 07:38:32;;;;;;;0.40;0.30;;;22.30;44.20;;;;;;5121336;28;20075;-35
2024/01/07 07:40:59;;;;;;;0.32;0.30;;;22.40;44.10;;;;;;5117748;28;20077;-35
2024/01/07 07:43:26;;;;;;;0.55;0.40;;;22.40;44.00;;;;;;5098009;28;20028;-34
2024/01/07 07:45:52;;;;;;;0.30;0.30;;;22.30;44.10;;;;;;5118553;28;20194;-32
2024/01/07 07:48:19;;;;;;;0.30;0.30;;;22.30;44.20;;;;;;5109230;28;20018;-36
2024/01/07 07:50:45;;;;;;;0.35;0.35;;;22.30;44.30;;;;;;5110573;28;20068;-37
2024/01/07 07:53:11;;;;;;;0.30;0.30;;;22.30;44.30;;;;;;5104111;28;20032;-36
2024/01/07 07:55:37;;;;;;;0.85;0.30;;;22.30;44.10;;;;;;5111502;28;20024;-37
2024/01/07 07:58:03;;;;;;;0.28;0.28;;;22.30;44.00;;;;;;5113612;28;20016;-37
2024/01/07 08:00:30;;;;;;;0.30;0.30;;;22.30;44.00;;;;;;5116136;28;20511;-36
2024/01/07 08:02:56;;;;;;;0.50;0.30;;;22.30;44.10;;;;;;5110143;28;20039;-36
2024/01/07 08:05:22;;;;;;;0.50;0.30;;;22.30;44.20;;;;;;5113314;28;20031;-35
2024/01/07 08:07:48;;;;;;;0.55;0.20;;;22.20;44.20;;;;;;5108361;28;20012;-37
2024/01/07 08:10:14;;;;;;;0.77;0.25;;;22.30;44.10;;;;;;5111815;28;20039;-34
2024/01/07 08:12:41;;;;;;;0.20;0.20;;;22.30;44.00;;;;;;5110234;28;20066;-35
2024/01/07 08:15:07;;;;;;;0.30;0.20;;;22.30;44.00;;;;;;5119041;28;20088;-36
2024/01/07 08:17:34;;;;;;;0.73;0.32;;;22.30;44.00;;;;;;5115113;28;20511;-37
2024/01/07 08:20:01;;;;;;;0.73;0.30;;;22.30;44.10;;;;;;5109551;28;20043;-35
2024/01/07 08:22:27;;;;;;;0.32;0.30;;;22.20;44.10;;;;;;5114242;28;20079;-36
2024/01/07 08:24:54;;;;;;;0.30;0.30;;;22.20;44.20;;;;;;5111134;28;20085;-36
2024/01/07 08:27:20;;;;;;;0.63;0.30;;;22.30;44.10;;;;;;5110668;28;20030;-38
2024/01/07 08:29:46;;;;;;;0.20;0.20;;;22.30;44.00;;;;;;5111017;28;20040;-36
2024/01/07 08:32:12;;;;;;;0.30;0.30;;;22.30;43.90;;;;;;5110471;28;20051;-36
2024/01/07 08:34:39;;;;;;;0.20;0.20;;;22.30;44.00;;;;;;5109881;28;20027;-36
2024/01/07 08:37:06;;;;;;;2.38;0.30;;;22.20;44.10;;;;;;5108807;28;20043;-36
2024/01/07 08:39:33;;;;;;;1.60;0.30;;;22.20;44.20;;;;;;5111242;28;20491;-35
2024/01/07 08:41:59;;;;;;;0.40;0.38;;;22.30;44.10;;;;;;5111625;28;20032;-33
2024/01/07 08:44:25;;;;;;;0.30;0.30;;;22.30;43.90;;;;;;5114079;28;20047;-34
2024/01/07 08:46:51;;;;;;;0.17;0.17;;;22.30;43.90;;;;;;5114904;28;20484;-37
2024/01/07 08:49:17;;;;;;;1.10;0.30;;;22.30;44.00;;;;;;5115116;28;20024;-36
2024/01/07 08:51:43;;;;;;;0.30;0.30;;;22.20;44.00;;;;;;5114722;28;20056;-34
2024/01/07 08:54:10;;;;;;;0.40;0.30;;;22.20;44.10;;;;;;5116347;28;20027;-37
2024/01/07 08:56:36;;;;;;;0.30;0.30;;;22.20;44.00;;;;;;5121947;28;20305;-35
2024/01/07 08:59:04;;;;;;;0.28;0.28;;;22.30;43.90;;;;;;5110236;28;20024;-33
2024/01/07 09:01:30;;;;;;;0.30;0.30;;;22.30;43.90;;;;;;5107795;28;20062;-36
2024/01/07 09:03:56;;;;;;;16.40;0.70;;;22.30;43.90;;;;;;5114057;28;20056;-34
2024/01/07 09:06:22;;;;;;;8.63;0.70;;;22.30;44.20;;;;;;5114007;28;20054;-37
2024/01/07 09:08:48;;;;;;;3.22;0.30;;;22.20;44.30;;;;;;5112256;28;20047;-32
2024/01/07 09:11:16;;;;;;;1.65;0.30;;;22.20;44.10;;;;;;5119220;28;20519;-34
2024/01/07 09:13:42;;;;;;;1.48;0.30;;;22.20;43.90;;;;;;5116983;27;20020;-36
2024/01/07 09:16:11;;;;;;;1.85;0.40;;;22.30;44.00;;;;;;5119373;28;20031;-33
2024/01/07 09:18:37;;;;;;;0.30;0.30;;;22.30;44.10;;;;;;5116513;28;20031;-34
2024/01/07 09:21:04;;;;;;;0.55;0.35;;;22.30;44.20;;;;;;5119560;28;20020;-35
2024/01/07 09:23:30;;;;;;;0.50;0.40;;;22.20;44.20;;;;;;5112202;28;20028;-36
2024/01/07 09:25:56;;;;;;;2.03;0.30;;;22.20;44.30;;;;;;5116367;28;20288;-37
2024/01/07 09:28:22;;;;;;;0.30;0.28;;;22.30;44.10;;;;;;5114853;28;20028;-32
2024/01/07 09:30:48;;;;;;;1.35;0.30;;;22.30;44.00;;;;;;5117241;28;20548;-35
2024/01/07 09:33:15;;;;;;;0.32;0.30;;;22.30;43.90;;;;;;5120155;27;20031;-37
2024/01/07 09:35:41;;;;;;;0.30;0.30;;;22.30;44.00;;;;;;5116376;28;20032;-36
2024/01/07 09:38:07;;;;;;;0.45;0.30;;;22.30;44.10;;;;;;5112266;28;20042;-36
2024/01/07 09:40:34;;;;;;;0.65;0.30;;;22.20;44.10;;;;;;5118447;28;20480;-35
2024/01/07 09:43:00;;;;;;;0.50;0.32;;;22.20;44.00;;;;;;5119037;28;20038;-37
2024/01/07 09:45:26;;;;;;;0.22;0.22;;;22.30;43.90;;;;;;5102052;28;20053;-34
2024/01/07 09:47:52;;;;;;;0.20;0.20;;;22.30;44.30;;;;;;5101384;28;20581;-36
2024/01/07 09:50:18;;;;;;;0.63;0.40;;;22.30;43.70;;;;;;5122371;28;20067;-39
2024/01/07 09:52:45;;;;;;;0.65;0.50;;;22.20;43.80;;;;;;5112543;28;20083;-37
2024/01/07 09:55:14;;;;;;;0.20;0.20;;;22.20;43.90;;;;;;5089563;28;20028;-35
2024/01/07 09:57:41;;;;;;;0.50;0.30;;;22.20;43.80;;;;;;5119328;27;20529;-33
2024/01/07 10:00:07;;;;;;;0.30;0.30;;;22.20;43.70;;;;;;5123156;27;20055;-34
2024/01/07 10:02:35;;;;;;;0.20;0.20;;;22.30;43.60;;;;;;5116276;28;20100;-35
2024/01/07 10:05:01;;;;;;;;;;;22.30;43.60;;;;;;5113945;28;20109;-36
2024/01/07 10:07:27;;;;;;;0.30;0.30;;;22.20;43.60;;;;;;5113752;28;19912;-33
2024/01/07 10:09:54;;;;;;;0.45;0.20;;;22.20;43.70;;;;;;5112057;28;20046;-35
2024/01/07 10:12:23;;;;;;;0.20;0.20;;;22.20;43.70;;;;;;5113729;27;20032;-34
2024/01/07 10:14:50;;;;;;;0.30;0.30;;;22.20;43.60;;;;;;5129487;27;20189;-35
2024/01/07 10:17:16;;;;;;;0.35;0.20;;;22.20;43.40;;;;;;5126664;27;20065;-35
2024/01/07 10:19:45;;;;;;;0.20;0.20;;;22.20;43.30;;;;;;5114431;28;20381;-33
2024/01/07 10:22:12;;;;;;;0.20;0.20;;;22.20;43.50;;;;;;5113105;28;20043;-38
2024/01/07 10:24:43;;;;;;;0.45;0.20;;;22.20;43.50;;;;;;5097508;28;20024;-35
2024/01/07 10:27:10;;;;;;;0.20;0.10;;;22.20;43.50;;;;;;5095475;28;20475;-35
2024/01/07 10:29:36;;;;;;;;;;;22.20;43.40;;;;;;5113404;28;20040;-35
2024/01/07 10:32:04;;;;;;;0.20;0.20;;;22.20;43.30;;;;;;5114403;28;20006;-36
2024/01/07 10:34:35;;;;;;;0.20;0.20;;;22.20;43.20;;;;;;5095979;28;20495;-34
2024/01/07 10:37:02;;;;;;;0.13;0.10;;;22.20;43.30;;;;;;5113275;28;20058;-34
2024/01/07 10:39:28;;;;;;;0.25;0.25;;;22.20;43.40;;;;;;5108846;28;20050;-36
2024/01/07 10:41:58;;;;;;;0.30;0.20;;;22.10;43.40;;;;;;5112478;28;20028;-35
2024/01/07 10:44:26;;;;;;;0.30;0.20;;;22.20;43.30;;;;;;5111380;28;20340;-32
2024/01/07 10:46:56;;;;;;;0.30;0.13;;;22.20;43.20;;;;;;5115685;28;20035;-36
2024/01/07 10:49:26;;;;;;;0.20;0.20;;;22.20;43.20;;;;;;5093732;28;20026;-36
2024/01/07 10:52:13;;;;;;;0.10;0.10;;;22.20;43.30;;;;;;5119227;28;20032;-36
2024/01/07 10:54:39;;;;;;;0.30;0.22;;;22.10;43.30;;;;;;5114169;28;20069;-34
2024/01/07 10:57:14;;;;;;;0.10;0.10;;;22.10;43.30;;;;;;5116105;28;20075;-37
2024/01/07 10:59:41;;;;;;;0.20;0.20;;;22.20;43.20;;;;;;5096555;28;20028;-33
2024/01/07 11:02:07;;;;;;;0.10;0.10;;;22.20;43.10;;;;;;5100522;28;20028;-36
2024/01/07 11:05:16;;;;;;;0.20;0.20;;;22.20;43.70;;;;;;5108666;28;20024;-34
2024/01/07 11:07:43;;;;;;;0.28;0.20;;;22.10;43.30;;;;;;5107840;28;20171;-35
2024/01/07 11:10:10;;;;;;;;;;;22.10;43.30;;;;;;5080427;28;20035;-34
2024/01/07 11:12:37;;;;;;;0.73;0.20;;;22.10;43.30;;;;;;5114226;28;19911;-33
2024/01/07 11:15:04;;;;;;;0.17;0.17;;;22.20;43.10;;;;;;5093858;28;20071;-35
2024/01/07 11:17:36;;;;;;;0.20;0.10;;;22.20;43.10;;;;;;5094663;28;20032;-35
2024/01/07 11:20:03;;;;;;;0.10;0.10;;;22.20;43.20;;;;;;5113123;28;20852;-35
2024/01/07 11:22:29;;;;;;;3.10;0.20;;;22.10;43.30;;;;;;5110855;28;20034;-33
2024/01/07 11:24:58;;;;;;;0.57;0.10;;;22.10;43.40;;;;;;5107621;28;20047;-34
2024/01/07 11:27:28;;;;;;;0.20;0.20;;;22.10;43.50;;;;;;5110162;28;20047;-32
2024/01/07 11:29:58;;;;;;;0.10;0.10;;;22.10;43.20;;;;;;5107005;28;20036;-33
2024/01/07 11:32:34;;;;;;;0.28;0.20;;;22.20;43.30;;;;;;5111252;28;20043;-32
2024/01/07 11:35:02;;;;;;;0.20;0.20;;;22.20;43.30;;;;;;5108002;28;20028;-36
2024/01/07 11:37:28;;;;;;;0.10;0.10;;;22.10;43.30;;;;;;5110082;28;20032;-35
2024/01/07 11:39:57;;;;;;;0.50;0.20;;;22.10;43.40;;;;;;5113416;28;20053;-35
2024/01/07 11:42:24;;;;;;;0.20;0.20;;;22.10;43.30;;;;;;5108988;28;20028;-36
2024/01/07 11:44:56;;;;;;;0.10;0.10;;;22.20;43.20;;;;;;5109164;28;20792;-37
2024/01/07 11:47:23;;;;;;;0.10;0.10;;;22.20;43.20;;;;;;5109631;28;20704;-33
2024/01/07 11:49:49;;;;;;;0.13;0.13;;;22.20;43.10;;;;;;5110993;28;20051;-36
2024/01/07 11:52:15;;;;;;;0.10;0.10;;;22.20;43.20;;;;;;5110600;28;20026;-36
2024/01/07 11:54:41;;;;;;;0.10;0.10;;;22.10;43.20;;;;;;5106533;28;20493;-36
2024/01/07 11:57:08;;;;;;;0.20;0.10;;;22.10;43.30;;;;;;5087762;28;20105;-34
2024/01/07 11:59:34;;;;;;;0.20;0.10;;;22.10;43.10;;;;;;5109811;28;20024;-37
2024/01/07 12:02:07;;;;;;;0.10;0.10;;;22.20;43.10;;;;;;5089101;28;20948;-36
2024/01/07 12:04:33;;;;;;;0.25;0.10;;;22.20;43.10;;;;;;5108054;28;20404;-35
2024/01/07 12:07:00;;;;;;;0.10;0.10;;;22.20;43.10;;;;;;5112702;28;20036;-36
2024/01/07 12:09:26;;;;;;;0.10;0.10;;;22.10;43.20;;;;;;5108879;28;20032;-35
2024/01/07 12:11:53;;;;;;;0.15;0.13;;;22.10;43.30;;;;;;5116053;28;20790;-36
2024/01/07 12:14:19;;;;;;;0.20;0.20;;;22.20;43.20;;;;;;5112497;28;20023;-33
2024/01/07 12:16:45;;;;;;;0.10;0.10;;;22.20;43.30;;;;;;5090714;28;20028;-31
2024/01/07 12:19:13;;;;;;;0.10;0.10;;;22.20;43.10;;;;;;5111583;28;20107;-37
2024/01/07 12:21:40;;;;;;;0.10;0.10;;;22.20;43.20;;;;;;5116997;27;20028;-35
2024/01/07 12:24:06;;;;;;;0.10;0.10;;;22.10;43.20;;;;;;5093115;28;20024;-35
2024/01/07 12:26:37;;;;;;;0.08;0.08;;;22.10;43.30;;;;;;5114242;28;20122;-36
2024/01/07 12:29:03;;;;;;;0.10;0.10;;;22.10;43.30;;;;;;5118133;28;20049;-33
2024/01/07 12:31:33;;;;;;;0.20;0.20;;;22.20;43.10;;;;;;5114118;28;20591;-34
2024/01/07 12:33:59;;;;;;;0.10;0.10;;;22.20;43.00;;;;;;5116424;28;20047;-35
2024/01/07 12:36:26;;;;;;;0.20;0.20;;;22.20;43.10;;;;;;5114170;28;20031;-36
2024/01/07 12:38:54;;;;;;;0.20;0.10;;;22.10;43.10;;;;;;5120328;28;20031;-33
2024/01/07 12:41:21;;;;;;;0.10;0.10;;;22.10;43.70;;;;;;5090283;28;20028;-32
2024/01/07 12:43:47;;;;;;;0.30;0.13;;;22.10;43.20;;;;;;5098368;28;20031;-37
2024/01/07 12:46:13;;;;;;;0.20;0.20;;;22.10;43.00;;;;;;5111826;28;20118;-34